createdAt,value
2023-01-26T00:02:04.911Z,24.37
2023-01-26T00:07:06.574Z,25.40
2023-01-26T00:12:08.323Z,26.48
2023-01-26T00:17:09.983Z,27.67
2023-01-26T00:22:11.796Z,27.47
2023-01-26T00:27:13.519Z,29.03
2023-01-26T00:32:15.208Z,31.37
2023-01-26T00:37:17.216Z,26.67
2023-01-26T00:42:18.930Z,26.03
2023-01-26T00:47:20.561Z,28.77
2023-01-26T00:52:22.244Z,31.02
2023-01-26T00:57:25.358Z,31.27
2023-01-26T01:02:27.142Z,27.97
2023-01-26T01:07:28.781Z,28.40
2023-01-26T01:12:30.636Z,29.13
2023-01-26T01:17:32.382Z,29.70
2023-01-26T01:22:35.635Z,27.67
2023-01-26T01:27:37.277Z,26.33
2023-01-26T01:32:40.088Z,33.28
2023-01-26T01:37:42.149Z,25.67
2023-01-26T01:42:48.553Z,28.93
2023-01-26T01:47:50.557Z,33.03
2023-01-26T01:52:54.931Z,26.63
2023-01-26T01:58:00.295Z,29.45
2023-01-26T02:03:16.608Z,27.95
2023-01-26T02:08:21.560Z,27.33
2023-01-26T02:13:24.613Z,27.17
2023-01-26T02:18:27.856Z,26.27
2023-01-26T02:23:45.896Z,29.90
2023-01-26T02:28:48.647Z,26.33
2023-01-26T02:33:51.246Z,31.33
2023-01-26T02:39:17.766Z,31.58
2023-01-26T02:44:19.709Z,31.73
2023-01-26T02:49:40.203Z,25.13
2023-01-26T02:55:00.730Z,68.53
2023-01-26T03:00:07.434Z,34.22
2023-01-26T03:05:09.253Z,28.17
2023-01-26T03:10:12.619Z,27.90
2023-01-26T03:15:33.309Z,24.95
2023-01-26T03:20:53.691Z,25.65
2023-01-26T03:26:15.549Z,28.27
2023-01-26T03:31:18.375Z,25.80
2023-01-26T03:36:20.341Z,28.08
2023-01-26T03:41:40.529Z,25.30
2023-01-26T03:47:01.072Z,26.52
2023-01-26T03:52:22.471Z,25.92
2023-01-26T03:57:25.582Z,25.63
2023-01-26T04:02:46.045Z,25.03
2023-01-26T04:08:06.673Z,25.27
2023-01-26T04:13:27.624Z,25.00
2023-01-26T04:18:54.455Z,23.55
2023-01-26T04:23:58.064Z,25.20
2023-01-26T04:29:01.373Z,22.85
2023-01-26T04:34:05.377Z,23.90
2023-01-26T04:39:08.101Z,22.00
2023-01-26T04:44:11.631Z,21.65
2023-01-26T04:49:13.581Z,23.48
2023-01-26T04:54:15.595Z,24.75
2023-01-26T04:59:19.594Z,23.73
2023-01-26T05:04:21.975Z,23.45
2023-01-26T05:09:23.876Z,23.20
2023-01-26T05:14:42.454Z,26.95
2023-01-26T05:19:58.282Z,26.02
2023-01-26T05:25:32.141Z,24.52
2023-01-26T05:30:38.649Z,22.88
2023-01-26T05:35:40.399Z,23.03
2023-01-26T05:40:44.845Z,22.17
2023-01-26T05:45:46.923Z,24.00
2023-01-26T05:50:51.021Z,25.38
2023-01-26T05:55:55.030Z,24.02
2023-01-26T06:01:04.468Z,22.73
2023-01-26T06:06:13.526Z,23.50
2023-01-26T06:11:25.032Z,24.42
2023-01-26T06:16:54.202Z,22.50
2023-01-26T06:21:56.096Z,24.88
2023-01-26T06:26:58.012Z,26.23
2023-01-26T06:32:00.543Z,24.20
2023-01-26T06:37:04.470Z,28.95
2023-01-26T06:42:10.096Z,20.27
2023-01-26T06:47:14.869Z,19.75
2023-01-26T06:52:31.202Z,23.67
2023-01-26T06:57:44.673Z,19.95
2023-01-26T07:03:06.520Z,21.08
2023-01-26T07:08:08.789Z,21.05
2023-01-26T07:13:10.475Z,21.45
2023-01-26T07:18:12.271Z,19.47
2023-01-26T07:23:13.988Z,24.23
2023-01-26T07:28:15.643Z,22.88
2023-01-26T07:33:17.214Z,18.80
2023-01-26T07:38:19.173Z,19.30
2023-01-26T07:43:21.360Z,19.83
2023-01-26T07:48:24.471Z,20.38
2023-01-26T07:53:29.124Z,20.05
2023-01-26T07:58:30.795Z,23.23
2023-01-26T08:03:32.609Z,21.90
2023-01-26T08:08:34.691Z,21.20
2023-01-26T08:13:36.484Z,20.57
2023-01-26T08:18:39.754Z,20.10
2023-01-26T08:23:41.582Z,21.30
2023-01-26T08:28:43.951Z,20.90
2023-01-26T08:33:50.825Z,21.30
2023-01-26T08:38:54.062Z,20.73
2023-01-26T08:43:59.159Z,20.38
2023-01-26T08:49:00.884Z,22.77
2023-01-26T08:54:05.663Z,22.83
2023-01-26T08:59:07.638Z,24.25
2023-01-26T09:04:09.247Z,30.50
2023-01-26T09:09:13.178Z,22.92
2023-01-26T09:14:15.184Z,22.00
2023-01-26T09:19:16.880Z,21.97
2023-01-26T09:24:18.604Z,22.00
2023-01-26T09:29:20.436Z,18.63
2023-01-26T09:34:22.188Z,21.37
2023-01-26T09:39:23.859Z,21.90
2023-01-26T09:44:30.603Z,22.20
2023-01-26T09:49:50.847Z,21.70
2023-01-26T09:54:59.657Z,19.80
2023-01-26T10:00:09.556Z,21.63
2023-01-26T10:05:20.280Z,21.52
2023-01-26T10:10:28.645Z,18.10
2023-01-26T10:15:39.139Z,17.95
2023-01-26T10:20:45.456Z,20.90
2023-01-26T10:25:47.950Z,16.88
2023-01-26T10:30:51.330Z,18.70
2023-01-26T10:35:53.762Z,18.40
2023-01-26T10:40:55.917Z,17.05
2023-01-26T10:45:57.608Z,18.20
2023-01-26T10:51:16.623Z,21.23
2023-01-26T10:56:18.450Z,16.52
2023-01-26T11:01:23.091Z,21.50
2023-01-26T11:06:28.990Z,20.77
2023-01-26T11:11:30.654Z,21.80
2023-01-26T11:16:32.637Z,20.08
2023-01-26T11:21:39.114Z,21.52
2023-01-26T11:26:43.699Z,20.65
2023-01-26T11:32:06.566Z,20.85
2023-01-26T11:37:30.463Z,20.77
2023-01-26T11:42:44.136Z,23.38
2023-01-26T11:48:12.321Z,22.13
2023-01-26T11:53:35.299Z,22.55
2023-01-26T12:03:52.801Z,24.40
2023-01-26T12:09:00.039Z,20.40
2023-01-26T12:14:50.531Z,26.48
2023-01-26T12:20:05.805Z,20.98
2023-01-26T12:25:40.512Z,27.92
2023-01-26T12:31:01.310Z,22.30
2023-01-26T12:36:12.693Z,25.40
2023-01-26T12:41:33.468Z,23.23
2023-01-26T12:46:39.118Z,23.20
2023-01-26T12:51:48.050Z,23.27
2023-01-26T12:56:56.699Z,22.90
2023-01-26T13:01:58.770Z,23.67
2023-01-26T13:07:28.206Z,22.27
2023-01-26T13:12:57.453Z,20.30
2023-01-26T13:18:01.792Z,20.90
2023-01-26T13:23:07.619Z,18.90
2023-01-26T13:28:13.133Z,19.77
2023-01-26T13:33:22.841Z,20.38
2023-01-26T13:38:36.867Z,20.13
2023-01-26T13:43:51.493Z,28.73
2023-01-26T13:48:55.181Z,24.70
2023-01-26T13:54:11.707Z,19.23
2023-01-26T13:59:19.474Z,16.60
2023-01-26T14:04:23.720Z,17.77
2023-01-26T14:09:31.599Z,17.15
2023-01-26T14:14:36.293Z,15.90
2023-01-26T14:19:42.247Z,15.40
2023-01-26T14:24:48.482Z,15.63
2023-01-26T14:29:50.215Z,16.50
2023-01-26T14:34:57.642Z,18.97
2023-01-26T14:40:21.454Z,17.63
2023-01-26T14:45:31.187Z,15.65
2023-01-26T14:50:33.880Z,18.80
2023-01-26T15:00:38.671Z,15.82
2023-01-26T15:05:43.411Z,16.85
2023-01-26T15:11:19.533Z,15.90
2023-01-26T15:16:45.573Z,16.25
2023-01-26T15:21:47.512Z,16.52
2023-01-26T15:26:51.370Z,16.73
2023-01-26T15:31:56.005Z,14.82
2023-01-26T15:36:58.748Z,18.15
2023-01-26T15:47:03.437Z,19.08
2023-01-26T15:52:37.775Z,20.60
2023-01-26T15:57:39.482Z,20.40
2023-01-26T16:02:41.445Z,18.87
2023-01-26T16:07:43.534Z,16.20
2023-01-26T16:12:48.498Z,16.42
2023-01-26T16:17:50.153Z,18.63
2023-01-26T16:22:51.754Z,16.85
2023-01-26T16:27:54.918Z,18.58
2023-01-26T16:32:56.794Z,19.60
2023-01-26T16:37:58.440Z,34.15
2023-01-26T16:43:01.732Z,20.93
2023-01-26T16:48:12.503Z,20.60
2023-01-26T16:53:26.515Z,15.70
2023-01-26T16:58:30.489Z,17.02
2023-01-26T17:03:32.894Z,19.02
2023-01-26T17:08:34.523Z,15.15
2023-01-26T17:13:36.629Z,16.40
2023-01-26T17:18:38.732Z,20.23
2023-01-26T17:23:44.285Z,18.75
2023-01-26T17:28:47.325Z,22.08
2023-01-26T17:33:50.868Z,19.65
2023-01-26T17:38:53.095Z,18.13
2023-01-26T17:43:54.840Z,18.55
2023-01-26T17:48:56.599Z,19.10
2023-01-26T17:53:58.766Z,18.20
2023-01-26T17:59:00.563Z,17.45
2023-01-26T18:04:02.619Z,19.67
2023-01-26T18:09:05.282Z,22.10
2023-01-26T18:19:09.030Z,18.88
2023-01-26T18:24:10.785Z,17.83
2023-01-26T18:29:12.871Z,19.00
2023-01-26T18:34:15.708Z,17.80
2023-01-26T18:39:17.480Z,17.58
2023-01-26T18:44:19.298Z,20.20
2023-01-26T18:49:21.447Z,19.67
2023-01-26T18:54:24.359Z,19.08
2023-01-26T18:59:26.109Z,19.08
2023-01-26T19:04:27.826Z,21.60
2023-01-26T19:09:35.834Z,21.83
2023-01-26T19:14:37.530Z,20.38
2023-01-26T19:19:41.024Z,20.93
2023-01-26T19:24:43.053Z,19.38
2023-01-26T19:29:44.722Z,17.10
2023-01-26T19:34:46.385Z,19.50
2023-01-26T19:39:47.989Z,18.92
2023-01-26T19:44:49.801Z,21.60
2023-01-26T19:49:51.429Z,20.85
2023-01-26T19:54:53.094Z,20.65
2023-01-26T19:59:55.004Z,18.33
2023-01-26T20:04:56.746Z,21.00
2023-01-26T20:09:58.544Z,19.53
2023-01-26T20:15:00.794Z,25.25
2023-01-26T20:20:03.288Z,21.42
2023-01-26T20:25:06.392Z,23.25
2023-01-26T20:30:08.828Z,25.17
2023-01-26T20:35:14.207Z,22.02
2023-01-26T20:40:16.025Z,23.45
2023-01-26T20:45:18.427Z,20.63
2023-01-26T20:50:20.543Z,24.05
2023-01-26T20:55:22.176Z,20.95
2023-01-26T21:00:23.881Z,19.60
2023-01-26T21:05:25.723Z,18.13
2023-01-26T21:10:27.466Z,17.27
2023-01-26T21:15:29.630Z,19.63
2023-01-26T21:20:31.483Z,16.35
2023-01-26T21:25:33.163Z,15.87
2023-01-26T21:30:34.814Z,14.43
2023-01-26T21:35:36.453Z,16.47
2023-01-26T21:40:38.103Z,18.33
2023-01-26T21:45:54.988Z,17.03
2023-01-26T21:51:18.458Z,15.00
2023-01-26T21:56:20.123Z,19.52
2023-01-26T22:01:22.853Z,18.60
2023-01-26T22:06:25.797Z,19.73
2023-01-26T22:11:28.291Z,19.42
2023-01-26T22:16:30.317Z,17.58
2023-01-26T22:21:32.596Z,14.10
2023-01-26T22:26:34.325Z,18.13
2023-01-26T22:31:36.038Z,15.90
2023-01-26T22:36:37.964Z,21.67
2023-01-26T22:41:40.093Z,18.63
2023-01-26T22:46:41.803Z,22.38
2023-01-26T22:51:43.416Z,16.27
2023-01-26T22:56:45.293Z,17.53
2023-01-26T23:01:47.001Z,17.40
2023-01-26T23:06:48.769Z,20.60
2023-01-26T23:11:50.448Z,21.17
2023-01-26T23:16:52.145Z,25.17
2023-01-26T23:21:54.074Z,22.67
2023-01-26T23:26:55.768Z,25.10
2023-01-26T23:31:57.458Z,20.30
2023-01-26T23:36:59.132Z,24.50
2023-01-26T23:42:00.779Z,22.93
2023-01-26T23:47:02.488Z,22.00
2023-01-26T23:52:04.409Z,20.83
2023-01-26T23:57:06.090Z,20.63
